createdAt,value
2017-09-14T00:00:01.578Z,95.60
2017-09-14T00:01:04.082Z,95.70
2017-09-14T00:02:06.692Z,96.10
2017-09-14T00:03:09.294Z,96.20
2017-09-14T00:04:11.937Z,96.20
2017-09-14T00:05:15.190Z,96.10
2017-09-14T00:06:17.685Z,96.00
2017-09-14T00:07:20.961Z,95.80
2017-09-14T00:08:23.458Z,95.80
2017-09-14T00:09:25.962Z,95.50
2017-09-14T00:10:28.518Z,95.40
2017-09-14T00:11:31.021Z,95.20
2017-09-14T00:12:33.504Z,95.00
2017-09-14T00:13:36.753Z,95.10
2017-09-14T00:14:39.373Z,95.10
2017-09-14T00:15:42.477Z,95.00
2017-09-14T00:16:45.119Z,94.90
2017-09-14T00:17:47.611Z,95.00
2017-09-14T00:18:50.179Z,95.10
2017-09-14T00:19:52.689Z,95.20
2017-09-14T00:20:56.899Z,95.50
2017-09-14T00:22:00.488Z,95.70
2017-09-14T00:23:03.932Z,95.70
2017-09-14T00:24:06.433Z,95.70
2017-09-14T00:25:08.951Z,95.70
2017-09-14T00:26:11.475Z,95.90
2017-09-14T00:27:15.849Z,95.70
2017-09-14T00:28:18.331Z,95.70
2017-09-14T00:29:20.884Z,95.60
2017-09-14T00:30:23.411Z,95.60
2017-09-14T00:31:27.063Z,95.60
2017-09-14T00:32:29.578Z,95.50
2017-09-14T00:33:34.457Z,95.60
2017-09-14T00:34:37.752Z,95.50
2017-09-14T00:35:40.340Z,95.50
2017-09-14T00:36:42.877Z,95.30
2017-09-14T00:37:47.939Z,95.10
2017-09-14T00:38:50.434Z,95.10
2017-09-14T00:39:52.931Z,95.00
2017-09-14T00:40:56.237Z,95.00
2017-09-14T00:41:58.854Z,94.90
2017-09-14T00:43:01.344Z,94.90
2017-09-14T00:44:04.167Z,95.10
2017-09-14T00:45:06.894Z,94.80
2017-09-14T00:46:11.304Z,94.90
2017-09-14T00:47:14.555Z,94.60
2017-09-14T00:48:17.037Z,94.50
2017-09-14T00:49:19.530Z,94.70
2017-09-14T00:50:22.332Z,94.80
2017-09-14T00:51:24.937Z,94.80
2017-09-14T00:52:27.524Z,94.90
2017-09-14T00:53:30.811Z,94.80
2017-09-14T00:54:34.219Z,94.80
2017-09-14T00:55:36.727Z,94.70
2017-09-14T00:56:39.220Z,94.70
2017-09-14T00:57:42.493Z,94.70
2017-09-14T00:58:44.978Z,94.70
2017-09-14T00:59:48.391Z,94.90
2017-09-14T01:00:51.016Z,94.80
2017-09-14T01:01:54.299Z,95.00
2017-09-14T01:02:58.337Z,95.20
2017-09-14T01:04:00.828Z,95.20
2017-09-14T01:05:03.324Z,95.30
2017-09-14T01:06:05.820Z,95.30
2017-09-14T01:07:09.188Z,95.40
2017-09-14T01:08:11.670Z,95.40
2017-09-14T01:09:15.048Z,95.30
2017-09-14T01:10:18.313Z,95.30
2017-09-14T01:11:20.985Z,95.30
2017-09-14T01:12:23.761Z,95.30
2017-09-14T01:13:26.417Z,95.20
2017-09-14T01:14:28.894Z,95.10
2017-09-14T01:15:31.787Z,95.10
2017-09-14T01:16:35.630Z,95.00
2017-09-14T01:17:38.217Z,95.00
2017-09-14T01:18:40.707Z,95.10
2017-09-14T01:19:43.972Z,94.90
2017-09-14T01:20:46.455Z,94.90
2017-09-14T01:21:49.814Z,94.90
2017-09-14T01:22:52.343Z,94.90
2017-09-14T01:23:54.848Z,94.90
2017-09-14T01:24:57.523Z,94.90
2017-09-14T01:26:00.019Z,95.00
2017-09-14T01:27:03.392Z,95.20
2017-09-14T01:28:05.971Z,95.10
2017-09-14T01:29:09.277Z,95.20
2017-09-14T01:30:11.812Z,95.20
2017-09-14T01:31:15.084Z,95.10
2017-09-14T01:32:17.597Z,95.10
2017-09-14T01:33:20.085Z,95.20
2017-09-14T01:34:22.573Z,95.30
2017-09-14T01:35:25.153Z,95.40
2017-09-14T01:36:27.760Z,95.40
2017-09-14T01:37:30.263Z,95.50
2017-09-14T01:38:32.765Z,95.50
2017-09-14T01:39:36.275Z,95.60
2017-09-14T01:40:38.823Z,95.60
2017-09-14T01:41:42.085Z,95.80
2017-09-14T01:42:44.586Z,95.80
2017-09-14T01:43:47.172Z,96.00
2017-09-14T01:44:49.857Z,95.80
2017-09-14T01:45:52.372Z,95.80
2017-09-14T01:46:55.626Z,96.00
2017-09-14T01:47:58.188Z,95.90
2017-09-14T01:49:00.673Z,96.00
2017-09-14T01:50:03.217Z,96.00
2017-09-14T01:51:05.736Z,96.30
2017-09-14T01:52:08.252Z,96.40
2017-09-14T01:53:10.735Z,96.40
2017-09-14T01:54:13.471Z,96.40
2017-09-14T01:55:15.976Z,96.40
2017-09-14T01:56:18.511Z,96.50
2017-09-14T01:57:21.083Z,96.60
2017-09-14T01:58:23.648Z,97.30
2017-09-14T01:59:26.224Z,97.20
2017-09-14T02:00:29.480Z,97.30
2017-09-14T02:01:31.983Z,97.30
2017-09-14T02:02:34.543Z,97.30
2017-09-14T02:03:37.064Z,97.30
2017-09-14T02:04:39.558Z,97.40
2017-09-14T02:05:42.082Z,97.50
2017-09-14T02:06:45.324Z,97.50
2017-09-14T02:07:47.816Z,97.50
2017-09-14T02:08:51.095Z,97.90
2017-09-14T02:09:54.371Z,97.90
2017-09-14T02:10:57.620Z,98.20
2017-09-14T02:12:00.460Z,97.90
2017-09-14T02:13:02.960Z,98.00
2017-09-14T02:14:05.454Z,98.00
2017-09-14T02:15:08.058Z,98.50
2017-09-14T02:16:10.543Z,98.60
2017-09-14T02:17:13.024Z,98.20
2017-09-14T02:18:15.508Z,98.70
2017-09-14T02:19:18.074Z,98.70
2017-09-14T02:20:21.375Z,99.00
2017-09-14T02:21:23.920Z,99.00
2017-09-14T02:22:27.187Z,98.90
2017-09-14T02:23:29.690Z,99.00
2017-09-14T02:24:32.947Z,99.10
2017-09-14T02:25:36.946Z,99.10
2017-09-14T02:26:39.520Z,99.10
2017-09-14T02:27:42.772Z,99.10
2017-09-14T02:28:45.267Z,99.10
2017-09-14T02:29:47.880Z,99.10
2017-09-14T02:30:50.369Z,99.10
2017-09-14T02:31:52.869Z,99.00
2017-09-14T02:32:55.413Z,99.00
2017-09-14T02:33:57.899Z,99.20
2017-09-14T02:35:00.474Z,99.00
2017-09-14T02:36:02.977Z,99.10
2017-09-14T02:37:05.488Z,99.30
2017-09-14T02:38:07.969Z,99.00
2017-09-14T02:39:10.525Z,99.10
2017-09-14T02:40:14.526Z,99.20
2017-09-14T02:41:17.768Z,99.10
2017-09-14T02:42:20.270Z,99.10
2017-09-14T02:43:24.281Z,99.10
2017-09-14T02:44:26.769Z,99.10
2017-09-14T02:45:30.020Z,99.10
2017-09-14T02:46:32.538Z,99.10
2017-09-14T02:47:35.040Z,99.00
2017-09-14T02:48:37.522Z,99.00
2017-09-14T02:49:40.055Z,99.00
2017-09-14T02:50:42.532Z,99.10
2017-09-14T02:51:45.110Z,99.10
2017-09-14T02:52:48.469Z,99.10
2017-09-14T02:53:51.056Z,99.10
2017-09-14T02:54:53.529Z,99.10
2017-09-14T02:55:56.345Z,99.10
2017-09-14T02:56:58.848Z,99.10
2017-09-14T02:58:01.898Z,99.00
2017-09-14T02:59:04.376Z,99.10
2017-09-14T03:00:06.859Z,99.20
2017-09-14T03:01:09.368Z,99.10
2017-09-14T03:02:12.781Z,99.10
2017-09-14T03:03:15.275Z,99.10
2017-09-14T03:04:17.843Z,99.10
2017-09-14T03:05:20.388Z,99.10
2017-09-14T03:06:22.858Z,99.10
2017-09-14T03:07:25.351Z,99.10
2017-09-14T03:08:27.924Z,99.10
2017-09-14T03:09:30.427Z,99.40
2017-09-14T03:10:33.800Z,99.20
2017-09-14T03:11:37.039Z,99.10
2017-09-14T03:12:40.343Z,99.10
2017-09-14T03:13:42.824Z,99.10
2017-09-14T03:14:45.355Z,99.20
2017-09-14T03:15:47.837Z,99.20
2017-09-14T03:16:50.418Z,99.20
2017-09-14T03:17:52.895Z,99.10
2017-09-14T03:18:55.419Z,99.10
2017-09-14T03:19:57.909Z,99.10
2017-09-14T03:21:01.897Z,99.10
2017-09-14T03:22:05.185Z,99.10
2017-09-14T03:23:07.674Z,99.10
2017-09-14T03:24:10.217Z,99.10
2017-09-14T03:25:12.696Z,99.10
2017-09-14T03:26:15.993Z,99.20
2017-09-14T03:27:19.292Z,99.50
2017-09-14T03:28:22.631Z,99.20
2017-09-14T03:29:25.120Z,99.20
2017-09-14T03:30:27.673Z,99.20
2017-09-14T03:31:30.159Z,99.20
2017-09-14T03:32:33.525Z,99.20
2017-09-14T03:33:36.858Z,99.20
2017-09-14T03:34:39.352Z,99.20
2017-09-14T03:35:41.835Z,99.10
2017-09-14T03:36:44.385Z,99.10
2017-09-14T03:37:46.893Z,99.40
2017-09-14T03:38:50.265Z,99.20
2017-09-14T03:39:53.359Z,99.20
2017-09-14T03:40:56.705Z,99.30
2017-09-14T03:41:59.201Z,99.30
2017-09-14T03:43:02.797Z,99.30
2017-09-14T03:44:06.054Z,99.50
2017-09-14T03:45:09.113Z,99.50
2017-09-14T03:46:11.613Z,99.60
2017-09-14T03:47:15.699Z,99.80
2017-09-14T03:48:18.192Z,99.70
2017-09-14T03:49:20.691Z,99.70
2017-09-14T03:50:23.203Z,99.70
2017-09-14T03:51:25.765Z,99.70
2017-09-14T03:52:28.392Z,99.60
2017-09-14T03:53:30.997Z,99.60
2017-09-14T03:54:33.520Z,99.10
2017-09-14T03:55:36.084Z,99.10
2017-09-14T03:56:38.618Z,99.10
2017-09-14T03:57:41.124Z,99.10
2017-09-14T03:58:43.602Z,99.00
2017-09-14T03:59:46.205Z,98.90
2017-09-14T04:00:48.716Z,98.80
2017-09-14T04:01:51.288Z,98.70
2017-09-14T04:02:53.768Z,98.70
2017-09-14T04:03:56.362Z,98.60
2017-09-14T04:04:58.873Z,98.50
2017-09-14T04:06:01.379Z,98.50
2017-09-14T04:07:03.892Z,98.50
2017-09-14T04:08:07.261Z,98.40
2017-09-14T04:09:09.766Z,98.40
2017-09-14T04:10:12.398Z,98.90
2017-09-14T04:11:14.884Z,98.90
2017-09-14T04:12:18.267Z,99.10
2017-09-14T04:13:21.533Z,99.00
2017-09-14T04:14:24.026Z,99.00
2017-09-14T04:15:26.525Z,99.40
2017-09-14T04:16:29.732Z,99.10
2017-09-14T04:17:32.211Z,99.10
2017-09-14T04:18:34.701Z,99.10
2017-09-14T04:19:37.969Z,99.20
2017-09-14T04:20:40.446Z,99.20
2017-09-14T04:21:43.729Z,99.20
2017-09-14T04:22:47.085Z,99.30
2017-09-14T04:23:49.572Z,99.30
2017-09-14T04:24:52.932Z,99.30
2017-09-14T04:25:56.942Z,99.30
2017-09-14T04:26:59.425Z,99.30
2017-09-14T04:28:02.680Z,99.40
2017-09-14T04:29:06.261Z,99.40
2017-09-14T04:30:08.827Z,99.40
2017-09-14T04:31:11.518Z,99.50
2017-09-14T04:32:14.030Z,99.40
2017-09-14T04:33:16.635Z,99.40
2017-09-14T04:34:19.123Z,99.80
2017-09-14T04:35:21.613Z,99.90
2017-09-14T04:36:24.138Z,99.90
2017-09-14T04:37:26.619Z,99.90
2017-09-14T04:38:29.206Z,99.90
2017-09-14T04:39:31.826Z,99.90
2017-09-14T04:40:34.299Z,99.90
2017-09-14T04:41:36.791Z,99.90
2017-09-14T04:42:40.057Z,99.90
2017-09-14T04:43:42.553Z,99.90
2017-09-14T04:44:45.859Z,99.90
2017-09-14T04:45:48.471Z,99.90
2017-09-14T04:46:50.964Z,99.90
2017-09-14T04:47:55.345Z,99.90
2017-09-14T04:48:57.837Z,99.90
2017-09-14T04:50:02.212Z,99.90
2017-09-14T04:51:04.769Z,99.90
2017-09-14T04:52:07.468Z,99.90
2017-09-14T04:53:09.966Z,99.90
2017-09-14T04:54:12.596Z,99.90
2017-09-14T04:55:16.599Z,99.90
2017-09-14T04:56:19.088Z,99.90
2017-09-14T04:57:22.365Z,99.90
2017-09-14T04:58:25.649Z,99.90
2017-09-14T04:59:28.936Z,99.90
2017-09-14T05:00:31.600Z,99.90
2017-09-14T05:01:34.915Z,99.90
2017-09-14T05:02:37.519Z,99.90
2017-09-14T05:03:40.047Z,99.90
2017-09-14T05:04:42.805Z,99.90
2017-09-14T05:05:46.064Z,99.90
2017-09-14T05:06:48.549Z,99.90
2017-09-14T05:07:51.805Z,99.90
2017-09-14T05:08:54.288Z,99.90
2017-09-14T05:09:57.559Z,99.90
2017-09-14T05:11:00.108Z,99.90
2017-09-14T05:12:02.593Z,99.90
2017-09-14T05:13:05.147Z,99.90
2017-09-14T05:14:08.403Z,99.90
2017-09-14T05:15:10.956Z,99.90
2017-09-14T05:16:13.557Z,99.90
2017-09-14T05:17:16.055Z,99.90
2017-09-14T05:18:19.315Z,99.90
2017-09-14T05:19:21.809Z,99.90
2017-09-14T05:20:25.091Z,99.90
2017-09-14T05:21:28.357Z,99.90
2017-09-14T05:22:31.662Z,99.90
2017-09-14T05:23:34.920Z,99.90
2017-09-14T05:24:37.427Z,99.90
2017-09-14T05:25:40.056Z,99.90
2017-09-14T05:26:42.566Z,99.90
2017-09-14T05:27:45.181Z,99.90
2017-09-14T05:28:47.687Z,99.90
2017-09-14T05:29:50.321Z,99.90
2017-09-14T05:30:53.597Z,99.90
2017-09-14T05:31:58.742Z,99.90
2017-09-14T05:33:02.028Z,99.90
2017-09-14T05:34:05.662Z,99.90
2017-09-14T05:35:08.164Z,99.90
2017-09-14T05:36:10.739Z,99.90
2017-09-14T05:37:13.280Z,99.90
2017-09-14T05:38:15.760Z,99.90
2017-09-14T05:39:18.336Z,99.80
2017-09-14T05:40:20.989Z,99.90
2017-09-14T05:41:23.481Z,99.80
2017-09-14T05:42:26.751Z,99.10
2017-09-14T05:43:29.236Z,99.10
2017-09-14T05:44:32.815Z,96.90
2017-09-14T05:45:35.320Z,96.90
2017-09-14T05:46:37.835Z,95.90
2017-09-14T05:47:40.358Z,94.80
2017-09-14T05:48:42.873Z,94.30
2017-09-14T05:49:45.387Z,94.10
2017-09-14T05:50:48.068Z,93.20
2017-09-14T05:51:50.563Z,92.10
2017-09-14T05:52:53.063Z,91.30
2017-09-14T05:53:56.336Z,90.00
2017-09-14T05:54:59.704Z,87.50
2017-09-14T05:56:02.194Z,87.40
2017-09-14T05:57:05.441Z,88.00
2017-09-14T05:58:08.088Z,87.90
2017-09-14T05:59:10.749Z,89.60
2017-09-14T06:00:13.272Z,89.00
2017-09-14T06:01:16.531Z,90.30
2017-09-14T06:02:19.019Z,90.30
2017-09-14T06:03:21.561Z,91.00
2017-09-14T06:04:24.080Z,91.00
2017-09-14T06:05:26.809Z,91.40
2017-09-14T06:06:29.321Z,91.50
2017-09-14T06:07:31.815Z,91.50
2017-09-14T06:08:34.339Z,93.10
2017-09-14T06:09:37.610Z,92.50
2017-09-14T06:10:40.870Z,93.10
2017-09-14T06:11:43.555Z,93.00
2017-09-14T06:12:46.040Z,93.10
2017-09-14T06:13:49.293Z,93.40
2017-09-14T06:14:51.798Z,93.40
2017-09-14T06:15:54.315Z,93.60
2017-09-14T06:16:56.850Z,93.80
2017-09-14T06:17:59.332Z,94.40
2017-09-14T06:19:01.845Z,94.30
2017-09-14T06:20:05.115Z,94.40
2017-09-14T06:21:08.412Z,94.20
2017-09-14T06:22:11.695Z,94.10
2017-09-14T06:23:14.947Z,94.10
2017-09-14T06:24:17.497Z,94.10
2017-09-14T06:25:19.984Z,94.00
2017-09-14T06:26:22.552Z,93.60
2017-09-14T06:27:25.081Z,93.40
2017-09-14T06:28:27.683Z,93.80
2017-09-14T06:29:30.160Z,93.50
2017-09-14T06:30:32.818Z,93.30
2017-09-14T06:31:35.306Z,93.40
2017-09-14T06:32:38.596Z,93.00
2017-09-14T06:33:41.843Z,92.60
2017-09-14T06:34:44.394Z,92.60
2017-09-14T06:35:46.877Z,92.10
2017-09-14T06:36:49.511Z,92.10
2017-09-14T06:37:52.111Z,91.90
2017-09-14T06:38:54.680Z,92.20
2017-09-14T06:39:57.278Z,92.40
2017-09-14T06:41:00.527Z,92.70
2017-09-14T06:42:03.038Z,92.60
2017-09-14T06:43:05.678Z,92.70
2017-09-14T06:44:08.391Z,93.20
2017-09-14T06:45:10.868Z,93.30
2017-09-14T06:46:13.446Z,93.70
2017-09-14T06:47:15.926Z,93.40
2017-09-14T06:48:18.454Z,93.20
2017-09-14T06:49:20.942Z,93.00
2017-09-14T06:50:23.421Z,92.90
2017-09-14T06:51:25.991Z,93.00
2017-09-14T06:52:29.240Z,92.40
2017-09-14T06:53:31.735Z,92.40
2017-09-14T06:54:34.342Z,92.70
2017-09-14T06:55:37.651Z,92.10
2017-09-14T06:56:40.129Z,92.10
2017-09-14T06:57:42.607Z,92.10
2017-09-14T06:58:45.104Z,92.20
2017-09-14T06:59:47.657Z,92.40
2017-09-14T07:00:50.264Z,92.00
2017-09-14T07:01:52.765Z,92.60
2017-09-14T07:02:55.254Z,92.50
2017-09-14T07:03:57.808Z,92.70
2017-09-14T07:05:00.317Z,92.30
2017-09-14T07:06:03.587Z,92.70
2017-09-14T07:07:06.108Z,92.70
2017-09-14T07:08:08.956Z,92.80
2017-09-14T07:09:11.485Z,92.60
2017-09-14T07:10:14.034Z,92.50
2017-09-14T07:11:16.527Z,93.00
2017-09-14T07:12:19.783Z,92.10
2017-09-14T07:13:22.292Z,92.10
2017-09-14T07:14:24.849Z,92.20
2017-09-14T07:15:28.126Z,92.10
2017-09-14T07:16:31.380Z,91.70
2017-09-14T07:17:33.866Z,91.70
2017-09-14T07:18:36.395Z,91.70
2017-09-14T07:19:38.897Z,91.60
2017-09-14T07:20:42.185Z,91.10
2017-09-14T07:21:44.838Z,91.20
2017-09-14T07:22:47.429Z,91.10
2017-09-14T07:23:50.771Z,91.80
2017-09-14T07:24:53.343Z,91.80
2017-09-14T07:25:55.842Z,91.70
2017-09-14T07:26:59.096Z,91.30
2017-09-14T07:28:01.646Z,91.30
2017-09-14T07:29:04.258Z,91.60
2017-09-14T07:30:06.853Z,91.90
2017-09-14T07:31:09.340Z,92.30
2017-09-14T07:32:11.845Z,92.40
2017-09-14T07:33:14.493Z,92.40
2017-09-14T07:34:16.996Z,92.70
2017-09-14T07:35:20.339Z,92.20
2017-09-14T07:36:22.837Z,92.10
2017-09-14T07:37:25.376Z,92.50
2017-09-14T07:38:27.890Z,93.00
2017-09-14T07:39:30.379Z,93.10
2017-09-14T07:40:32.900Z,93.70
2017-09-14T07:41:36.396Z,94.50
2017-09-14T07:42:39.687Z,95.00
2017-09-14T07:43:43.066Z,95.30
2017-09-14T07:44:46.353Z,95.80
2017-09-14T07:45:49.729Z,95.90
2017-09-14T07:46:52.224Z,95.80
2017-09-14T07:47:54.707Z,95.70
2017-09-14T07:48:57.193Z,95.60
2017-09-14T07:49:59.796Z,95.30
2017-09-14T07:51:03.095Z,95.70
2017-09-14T07:52:06.434Z,95.80
2017-09-14T07:53:08.961Z,95.70
2017-09-14T07:54:11.631Z,95.80
2017-09-14T07:55:14.128Z,95.60
2017-09-14T07:56:16.696Z,95.30
2017-09-14T07:57:19.186Z,95.10
2017-09-14T07:58:21.758Z,94.90
2017-09-14T07:59:24.257Z,95.00
2017-09-14T08:00:26.736Z,94.70
2017-09-14T08:01:29.970Z,94.10
2017-09-14T08:02:32.509Z,94.20
2017-09-14T08:03:35.036Z,94.10
2017-09-14T08:04:37.531Z,94.70
2017-09-14T08:05:40.036Z,94.60
2017-09-14T08:06:43.396Z,94.70
2017-09-14T08:07:45.996Z,94.70
2017-09-14T08:08:49.431Z,94.80
2017-09-14T08:09:52.027Z,94.80
2017-09-14T08:10:54.623Z,94.40
2017-09-14T08:11:57.879Z,94.80
2017-09-14T08:13:00.440Z,94.80
2017-09-14T08:14:02.928Z,94.50
2017-09-14T08:15:06.912Z,93.80
2017-09-14T08:16:09.408Z,93.70
2017-09-14T08:17:12.905Z,92.70
2017-09-14T08:18:15.405Z,92.70
2017-09-14T08:19:18.047Z,93.80
2017-09-14T08:20:20.541Z,93.00
2017-09-14T08:21:23.280Z,92.90
2017-09-14T08:22:25.766Z,93.10
2017-09-14T08:23:29.293Z,93.80
2017-09-14T08:24:31.779Z,93.30
2017-09-14T08:25:35.168Z,93.50
2017-09-14T08:26:38.529Z,93.10
2017-09-14T08:27:41.118Z,93.10
2017-09-14T08:28:44.582Z,93.50
2017-09-14T08:29:47.129Z,93.50
2017-09-14T08:30:49.637Z,92.30
2017-09-14T08:31:52.995Z,86.60
2017-09-14T08:32:55.488Z,86.40
2017-09-14T08:33:58.863Z,72.80
2017-09-14T08:35:01.366Z,72.70
2017-09-14T08:36:03.970Z,65.90
2017-09-14T08:37:06.638Z,60.70
2017-09-14T08:38:09.269Z,58.00
2017-09-14T08:39:11.792Z,55.50
2017-09-14T08:40:14.299Z,56.50
2017-09-14T08:41:16.782Z,60.00
2017-09-14T08:42:19.284Z,61.20
2017-09-14T08:43:21.783Z,58.80
2017-09-14T08:44:24.289Z,61.20
2017-09-14T08:45:26.783Z,64.40
2017-09-14T08:46:30.967Z,72.00
2017-09-14T08:47:34.897Z,71.90
2017-09-14T08:48:38.302Z,75.30
2017-09-14T08:49:41.560Z,80.30
2017-09-14T08:50:44.064Z,80.20
2017-09-14T08:51:46.556Z,80.00
2017-09-14T08:52:49.132Z,80.60
2017-09-14T08:53:51.657Z,84.00
2017-09-14T08:54:54.151Z,85.00
2017-09-14T08:55:56.668Z,87.70
2017-09-14T08:56:59.779Z,90.00
2017-09-14T08:58:02.291Z,90.90
2017-09-14T08:59:04.913Z,91.60
2017-09-14T09:00:07.400Z,91.30
2017-09-14T09:01:09.990Z,91.50
2017-09-14T09:02:13.434Z,91.70
2017-09-14T09:03:16.621Z,92.00
2017-09-14T09:04:19.132Z,92.40
2017-09-14T09:05:21.629Z,92.60
2017-09-14T09:06:24.879Z,91.70
2017-09-14T09:07:27.456Z,91.60
2017-09-14T09:08:29.949Z,92.10
2017-09-14T09:09:34.330Z,92.70
2017-09-14T09:10:37.675Z,92.10
2017-09-14T09:11:40.283Z,92.00
2017-09-14T09:12:42.921Z,92.90
2017-09-14T09:13:45.488Z,93.00
2017-09-14T09:14:48.104Z,92.60
2017-09-14T09:15:51.609Z,92.60
2017-09-14T09:16:54.107Z,92.60
2017-09-14T09:17:56.830Z,93.20
2017-09-14T09:18:59.392Z,93.00
2017-09-14T09:20:02.724Z,93.30
2017-09-14T09:21:05.370Z,93.30
2017-09-14T09:22:07.860Z,93.40
2017-09-14T09:23:10.490Z,92.90
2017-09-14T09:24:14.001Z,92.80
2017-09-14T09:25:16.532Z,92.60
2017-09-14T09:26:19.011Z,92.50
2017-09-14T09:27:22.275Z,93.30
2017-09-14T09:28:24.822Z,93.30
2017-09-14T09:29:29.621Z,93.40
2017-09-14T09:30:32.188Z,93.40
2017-09-14T09:31:34.700Z,93.70
2017-09-14T09:32:38.069Z,93.20
2017-09-14T09:33:40.558Z,93.10
2017-09-14T09:34:43.937Z,92.20
2017-09-14T09:35:47.302Z,92.40
2017-09-14T09:36:49.781Z,92.40
2017-09-14T09:37:52.256Z,92.40
2017-09-14T09:38:55.783Z,91.50
2017-09-14T09:39:58.302Z,91.50
2017-09-14T09:41:02.704Z,89.50
2017-09-14T09:42:05.206Z,89.40
2017-09-14T09:43:07.946Z,90.20
2017-09-14T09:44:10.420Z,89.00
2017-09-14T09:45:15.140Z,90.30
2017-09-14T09:46:18.383Z,88.20
2017-09-14T09:47:20.972Z,88.80
2017-09-14T09:48:24.234Z,87.30
2017-09-14T09:49:26.719Z,87.90
2017-09-14T09:50:29.252Z,89.90
2017-09-14T09:51:31.857Z,85.90
2017-09-14T09:52:34.369Z,84.90
2017-09-14T09:53:36.979Z,87.40
2017-09-14T09:54:39.469Z,85.20
2017-09-14T09:55:42.849Z,81.60
2017-09-14T09:56:46.121Z,85.20
2017-09-14T09:57:48.772Z,84.80
2017-09-14T09:58:51.276Z,86.80
2017-09-14T09:59:54.673Z,86.10
2017-09-14T10:00:57.955Z,86.30
2017-09-14T10:02:00.719Z,86.20
2017-09-14T10:03:04.084Z,86.20
2017-09-14T10:04:07.354Z,83.60
2017-09-14T10:05:09.905Z,83.20
2017-09-14T10:06:12.694Z,83.70
2017-09-14T10:07:15.169Z,79.80
2017-09-14T10:08:17.679Z,81.40
2017-09-14T10:09:20.240Z,82.10
2017-09-14T10:10:22.864Z,82.40
2017-09-14T10:11:25.355Z,82.70
2017-09-14T10:12:28.615Z,85.80
2017-09-14T10:13:31.127Z,85.60
2017-09-14T10:14:33.900Z,85.50
2017-09-14T10:15:36.408Z,85.00
2017-09-14T10:16:38.897Z,85.70
2017-09-14T10:17:42.172Z,89.00
2017-09-14T10:18:44.836Z,89.10
2017-09-14T10:19:47.314Z,89.40
2017-09-14T10:20:49.995Z,88.60
2017-09-14T10:21:53.304Z,88.90
2017-09-14T10:22:55.929Z,88.90
2017-09-14T10:23:58.481Z,89.20
2017-09-14T10:25:00.970Z,90.60
2017-09-14T10:26:03.475Z,90.10
2017-09-14T10:27:05.974Z,88.90
2017-09-14T10:28:08.502Z,90.10
2017-09-14T10:29:11.143Z,86.90
2017-09-14T10:30:14.625Z,90.10
2017-09-14T10:31:17.206Z,90.30
2017-09-14T10:32:20.465Z,88.30
2017-09-14T10:33:23.033Z,88.00
2017-09-14T10:34:25.577Z,87.40
2017-09-14T10:35:28.250Z,85.90
2017-09-14T10:36:30.877Z,86.90
2017-09-14T10:37:33.408Z,85.20
2017-09-14T10:38:35.897Z,86.60
2017-09-14T10:39:39.134Z,82.60
2017-09-14T10:40:41.632Z,82.60
2017-09-14T10:41:44.904Z,83.40
2017-09-14T10:42:47.414Z,83.30
2017-09-14T10:43:49.906Z,84.70
2017-09-14T10:44:52.413Z,84.90
2017-09-14T10:45:55.671Z,82.20
2017-09-14T10:46:58.167Z,82.50
2017-09-14T10:48:01.417Z,81.50
2017-09-14T10:49:03.891Z,81.40
2017-09-14T10:50:06.467Z,82.00
2017-09-14T10:51:09.751Z,80.60
2017-09-14T10:52:13.626Z,81.40
2017-09-14T10:53:16.118Z,81.30
2017-09-14T10:54:19.361Z,80.70
2017-09-14T10:55:21.859Z,80.20
2017-09-14T10:56:25.233Z,83.00
2017-09-14T10:57:27.789Z,82.50
2017-09-14T10:58:30.303Z,82.20
2017-09-14T10:59:33.568Z,80.30
2017-09-14T11:00:37.008Z,80.40
2017-09-14T11:01:39.605Z,80.30
2017-09-14T11:02:42.758Z,80.00
2017-09-14T11:03:45.266Z,80.30
2017-09-14T11:04:47.838Z,79.80
2017-09-14T11:05:51.208Z,79.00
2017-09-14T11:06:53.754Z,79.00
2017-09-14T11:07:56.342Z,79.20
2017-09-14T11:08:58.911Z,79.50
2017-09-14T11:10:01.408Z,78.50
2017-09-14T11:11:03.942Z,78.40
2017-09-14T11:12:06.433Z,78.20
2017-09-14T11:13:09.692Z,77.60
2017-09-14T11:14:12.651Z,77.50
2017-09-14T11:15:15.197Z,76.60
2017-09-14T11:16:17.680Z,74.60
2017-09-14T11:17:20.268Z,74.70
2017-09-14T11:18:22.757Z,73.50
2017-09-14T11:19:26.035Z,71.10
2017-09-14T11:20:29.405Z,70.10
2017-09-14T11:21:31.957Z,70.10
2017-09-14T11:22:35.161Z,69.10
2017-09-14T11:23:38.423Z,69.10
2017-09-14T11:24:41.015Z,69.20
2017-09-14T11:25:44.259Z,68.90
2017-09-14T11:26:46.780Z,68.90
2017-09-14T11:27:50.112Z,70.10
2017-09-14T11:28:52.601Z,70.10
2017-09-14T11:29:55.128Z,68.60
2017-09-14T11:30:57.643Z,70.50
2017-09-14T11:32:00.896Z,69.00
2017-09-14T11:33:03.409Z,69.00
2017-09-14T11:34:05.937Z,69.20
2017-09-14T11:35:08.419Z,65.00
2017-09-14T11:36:11.802Z,66.80
2017-09-14T11:37:15.048Z,65.10
2017-09-14T11:38:17.887Z,64.90
2017-09-14T11:39:20.387Z,63.50
2017-09-14T11:40:23.023Z,61.60
2017-09-14T11:41:25.528Z,61.40
2017-09-14T11:42:28.085Z,62.50
2017-09-14T11:43:30.589Z,62.50
2017-09-14T11:44:33.175Z,64.20
2017-09-14T11:45:36.422Z,63.10
2017-09-14T11:46:38.993Z,63.10
2017-09-14T11:47:41.480Z,62.90
2017-09-14T11:48:44.773Z,65.10
2017-09-14T11:49:48.016Z,66.00
2017-09-14T11:50:50.590Z,66.00
2017-09-14T11:51:53.072Z,66.60
2017-09-14T11:52:56.345Z,66.20
2017-09-14T11:53:58.840Z,66.10
2017-09-14T11:55:02.179Z,65.30
2017-09-14T11:56:04.673Z,65.40
2017-09-14T11:57:07.199Z,66.50
2017-09-14T11:58:09.809Z,65.70
2017-09-14T11:59:13.220Z,66.40
2017-09-14T12:00:15.725Z,66.40
2017-09-14T12:01:18.304Z,65.60
2017-09-14T12:02:20.781Z,66.00
2017-09-14T12:03:23.339Z,67.50
2017-09-14T12:04:25.836Z,68.30
2017-09-14T12:05:29.201Z,68.30
2017-09-14T12:06:32.531Z,66.20
2017-09-14T12:07:35.022Z,66.70
2017-09-14T12:08:37.501Z,65.50
2017-09-14T12:09:41.683Z,63.60
2017-09-14T12:10:44.205Z,63.50
2017-09-14T12:11:47.559Z,63.00
2017-09-14T12:12:50.049Z,63.00
2017-09-14T12:13:53.405Z,62.50
2017-09-14T12:14:55.932Z,62.40
2017-09-14T12:15:58.447Z,62.10
2017-09-14T12:17:01.028Z,60.60
2017-09-14T12:18:04.292Z,62.40
2017-09-14T12:19:06.783Z,61.80
2017-09-14T12:20:10.119Z,58.80
2017-09-14T12:21:12.733Z,58.80
2017-09-14T12:22:16.146Z,59.50
2017-09-14T12:23:18.715Z,59.50
2017-09-14T12:24:22.021Z,59.50
2017-09-14T12:25:24.605Z,59.40
2017-09-14T12:26:28.288Z,58.40
2017-09-14T12:27:30.788Z,58.50
2017-09-14T12:28:34.077Z,58.80
2017-09-14T12:29:37.341Z,58.40
2017-09-14T12:30:39.998Z,58.40
2017-09-14T12:31:42.475Z,58.50
2017-09-14T12:32:45.057Z,58.00
2017-09-14T12:33:47.572Z,57.20
2017-09-14T12:34:50.145Z,56.00
2017-09-14T12:35:52.642Z,56.20
2017-09-14T12:36:55.204Z,56.20
2017-09-14T12:37:57.728Z,55.40
2017-09-14T12:39:00.329Z,56.50
2017-09-14T12:40:02.815Z,57.30
2017-09-14T12:41:05.328Z,56.30
2017-09-14T12:42:07.870Z,54.30
2017-09-14T12:43:11.210Z,53.90
2017-09-14T12:44:13.776Z,53.70
2017-09-14T12:45:17.912Z,53.40
2017-09-14T12:46:21.252Z,51.70
2017-09-14T12:47:24.017Z,51.60
2017-09-14T12:48:26.542Z,51.30
2017-09-14T12:49:29.898Z,51.10
2017-09-14T12:50:32.393Z,51.10
2017-09-14T12:51:35.798Z,51.50
2017-09-14T12:52:38.347Z,51.40
2017-09-14T12:53:41.703Z,52.00
2017-09-14T12:54:44.243Z,52.00
2017-09-14T12:55:46.856Z,52.70
2017-09-14T12:56:49.977Z,52.80
2017-09-14T12:57:52.577Z,52.30
2017-09-14T12:58:55.212Z,52.20
2017-09-14T12:59:57.693Z,52.60
2017-09-14T13:01:00.195Z,53.60
2017-09-14T13:02:02.748Z,54.70
2017-09-14T13:03:05.235Z,55.30
2017-09-14T13:04:08.684Z,56.00
2017-09-14T13:05:11.193Z,56.00
2017-09-14T13:06:14.577Z,57.00
2017-09-14T13:07:17.077Z,56.90
2017-09-14T13:08:19.709Z,57.80
2017-09-14T13:09:22.188Z,57.90
2017-09-14T13:10:25.542Z,57.00
2017-09-14T13:11:28.033Z,57.00
2017-09-14T13:12:31.393Z,56.80
2017-09-14T13:13:34.008Z,56.30
2017-09-14T13:14:36.722Z,55.90
2017-09-14T13:15:39.309Z,55.20
2017-09-14T13:16:44.789Z,55.20
2017-09-14T13:17:47.333Z,55.00
2017-09-14T13:18:50.761Z,55.00
2017-09-14T13:19:53.856Z,55.00
2017-09-14T13:20:57.817Z,54.30
2017-09-14T13:22:00.314Z,53.70
2017-09-14T13:23:02.903Z,52.80
2017-09-14T13:24:05.424Z,53.50
2017-09-14T13:25:08.032Z,53.50
2017-09-14T13:26:10.642Z,54.30
2017-09-14T13:27:13.152Z,53.70
2017-09-14T13:28:15.742Z,53.90